createdAt,value
2018-02-09T00:00:37.908Z,-4.20
2018-02-09T00:03:05.429Z,-4.20
2018-02-09T00:05:32.995Z,-4.30
2018-02-09T00:08:00.584Z,-4.30
2018-02-09T00:10:28.134Z,-4.30
2018-02-09T00:12:55.659Z,-4.20
2018-02-09T00:15:23.207Z,-4.20
2018-02-09T00:17:51.771Z,-4.20
2018-02-09T00:20:20.118Z,-4.40
2018-02-09T00:22:52.639Z,-4.40
2018-02-09T00:25:20.195Z,-4.40
2018-02-09T00:27:47.730Z,-4.50
2018-02-09T00:30:15.304Z,-4.50
2018-02-09T00:32:42.838Z,-4.50
2018-02-09T00:35:11.158Z,-4.50
2018-02-09T00:37:38.716Z,-4.50
2018-02-09T00:40:06.386Z,-4.60
2018-02-09T00:42:33.880Z,-4.60
2018-02-09T00:45:01.457Z,-4.60
2018-02-09T00:47:29.753Z,-4.50
2018-02-09T00:49:57.291Z,-4.50
2018-02-09T00:52:25.666Z,-4.50
2018-02-09T00:54:53.220Z,-4.50
2018-02-09T00:57:20.741Z,-4.60
2018-02-09T00:59:49.270Z,-4.60
2018-02-09T01:02:16.795Z,-4.60
2018-02-09T01:04:45.106Z,-4.50
2018-02-09T01:07:12.644Z,-4.50
2018-02-09T01:09:41.019Z,-4.40
2018-02-09T01:12:08.552Z,-4.40
2018-02-09T01:14:36.124Z,-4.40
2018-02-09T01:17:03.643Z,-4.40
2018-02-09T01:19:31.182Z,-4.40
2018-02-09T01:21:58.741Z,-4.50
2018-02-09T01:24:26.283Z,-4.60
2018-02-09T01:26:55.163Z,-4.60
2018-02-09T01:29:22.711Z,-4.70
2018-02-09T01:31:50.259Z,-4.70
2018-02-09T01:34:17.784Z,-4.60
2018-02-09T01:36:45.435Z,-4.60
2018-02-09T01:39:12.959Z,-4.60
2018-02-09T01:41:40.512Z,-4.60
2018-02-09T01:44:08.031Z,-4.60
2018-02-09T01:46:35.576Z,-4.60
2018-02-09T01:49:03.099Z,-4.60
2018-02-09T01:51:30.667Z,-4.60
2018-02-09T01:53:58.186Z,-4.70
2018-02-09T01:56:25.735Z,-4.70
2018-02-09T01:58:54.028Z,-4.80
2018-02-09T02:01:22.340Z,-4.70
2018-02-09T02:03:49.956Z,-4.70
2018-02-09T02:09:08.700Z,-4.70
2018-02-09T02:11:37.023Z,-4.60
2018-02-09T02:14:05.319Z,-4.60
2018-02-09T02:16:32.893Z,-4.60
2018-02-09T02:19:00.423Z,-4.60
2018-02-09T02:21:28.729Z,-4.70
2018-02-09T02:23:56.448Z,-4.70
2018-02-09T02:26:23.974Z,-4.70
2018-02-09T02:28:52.287Z,-4.80
2018-02-09T02:31:19.848Z,-4.80
2018-02-09T02:33:47.383Z,-4.90
2018-02-09T02:36:14.943Z,-5.00
2018-02-09T02:38:42.467Z,-5.00
2018-02-09T02:41:10.029Z,-5.00
2018-02-09T02:43:37.570Z,-4.90
2018-02-09T02:46:05.161Z,-5.00
2018-02-09T02:48:33.463Z,-5.00
2018-02-09T02:51:01.016Z,-5.00
2018-02-09T02:53:29.316Z,-5.00
2018-02-09T02:55:57.651Z,-5.00
2018-02-09T02:58:25.193Z,-5.10
2018-02-09T03:00:52.756Z,-5.00
2018-02-09T03:03:21.049Z,-4.90
2018-02-09T03:05:48.602Z,-4.90
2018-02-09T03:08:16.888Z,-4.90
2018-02-09T03:10:44.451Z,-4.90
2018-02-09T03:13:11.996Z,-4.90
2018-02-09T03:15:39.551Z,-4.90
2018-02-09T03:18:07.069Z,-4.90
2018-02-09T03:20:34.636Z,-4.90
2018-02-09T03:23:02.172Z,-4.90
2018-02-09T03:25:29.732Z,-4.90
2018-02-09T03:27:57.259Z,-4.90
2018-02-09T03:30:24.814Z,-4.80
2018-02-09T03:32:52.341Z,-4.80
2018-02-09T03:35:19.895Z,-4.70
2018-02-09T03:37:48.187Z,-4.80
2018-02-09T03:40:16.512Z,-4.80
2018-02-09T03:42:44.044Z,-4.80
2018-02-09T03:45:12.363Z,-4.90
2018-02-09T03:47:39.881Z,-4.90
2018-02-09T03:50:07.444Z,-4.90
2018-02-09T03:52:34.970Z,-5.00
2018-02-09T03:55:02.540Z,-4.90
2018-02-09T03:57:30.060Z,-4.90
2018-02-09T03:59:57.611Z,-4.90
2018-02-09T04:02:25.169Z,-4.90
2018-02-09T04:04:53.460Z,-4.90
2018-02-09T04:07:20.995Z,-4.90
2018-02-09T04:09:48.540Z,-5.00
2018-02-09T04:12:16.832Z,-5.10
2018-02-09T04:14:44.387Z,-5.10
2018-02-09T04:17:11.900Z,-5.10
2018-02-09T04:19:40.228Z,-5.10
2018-02-09T04:22:07.753Z,-5.10
2018-02-09T04:24:35.312Z,-5.20
2018-02-09T04:27:02.849Z,-5.20
2018-02-09T04:29:30.405Z,-5.20
2018-02-09T04:31:57.932Z,-5.20
2018-02-09T04:34:25.491Z,-5.20
2018-02-09T04:36:53.019Z,-5.30
2018-02-09T04:39:20.580Z,-5.30
2018-02-09T04:41:48.895Z,-5.20
2018-02-09T04:44:16.428Z,-5.30
2018-02-09T04:46:43.987Z,-5.20
2018-02-09T04:49:11.516Z,-5.10
2018-02-09T04:51:39.078Z,-5.10
2018-02-09T04:54:06.610Z,-5.10
2018-02-09T04:56:34.171Z,-5.10
2018-02-09T04:59:01.745Z,-5.10
2018-02-09T05:01:29.308Z,-5.20
2018-02-09T05:03:56.899Z,-5.20
2018-02-09T05:06:24.447Z,-5.10
2018-02-09T05:08:51.962Z,-5.10
2018-02-09T05:11:20.291Z,-5.00
2018-02-09T05:13:47.816Z,-5.00
2018-02-09T05:16:16.131Z,-4.90
2018-02-09T05:18:43.656Z,-4.90
2018-02-09T05:21:11.211Z,-4.80
2018-02-09T05:23:38.733Z,-4.90
2018-02-09T05:26:07.077Z,-4.90
2018-02-09T05:28:34.629Z,-4.90
2018-02-09T05:31:02.192Z,-4.90
2018-02-09T05:33:29.727Z,-4.90
2018-02-09T05:35:57.284Z,-4.90
2018-02-09T05:38:24.807Z,-5.00
2018-02-09T05:40:52.365Z,-5.00
2018-02-09T05:43:19.884Z,-5.00
2018-02-09T05:45:47.440Z,-5.00
2018-02-09T05:48:15.054Z,-4.90
2018-02-09T05:50:42.610Z,-4.90
2018-02-09T05:53:10.144Z,-4.90
2018-02-09T05:55:38.471Z,-4.90
2018-02-09T05:58:06.002Z,-4.90
2018-02-09T06:00:33.563Z,-4.90
2018-02-09T06:03:01.083Z,-5.00
2018-02-09T06:05:28.653Z,-4.90
2018-02-09T06:07:56.176Z,-4.90
2018-02-09T06:10:23.731Z,-4.90
2018-02-09T06:12:52.016Z,-4.80
2018-02-09T06:15:19.567Z,-4.80
2018-02-09T06:17:47.087Z,-4.80
2018-02-09T06:20:14.653Z,-4.80
2018-02-09T06:22:42.179Z,-4.80
2018-02-09T06:25:09.740Z,-4.80
2018-02-09T06:27:38.116Z,-4.90
2018-02-09T06:30:06.444Z,-4.90
2018-02-09T06:32:33.976Z,-4.90
2018-02-09T06:35:01.548Z,-4.90
2018-02-09T06:37:29.072Z,-4.90
2018-02-09T06:39:56.635Z,-4.90
2018-02-09T06:42:24.180Z,-4.90
2018-02-09T06:44:51.736Z,-4.90
2018-02-09T06:47:19.336Z,-4.90
2018-02-09T06:49:46.894Z,-4.80
2018-02-09T06:52:14.435Z,-4.80
2018-02-09T06:54:42.009Z,-4.80
2018-02-09T06:57:09.536Z,-4.70
2018-02-09T06:59:37.094Z,-4.80
2018-02-09T07:02:04.622Z,-4.70
2018-02-09T07:04:32.188Z,-4.50
2018-02-09T07:06:59.770Z,-4.50
2018-02-09T07:09:27.331Z,-4.40
2018-02-09T07:11:54.877Z,-4.40
2018-02-09T07:14:22.446Z,-4.30
2018-02-09T07:16:49.981Z,-4.20
2018-02-09T07:19:17.535Z,-4.10
2018-02-09T07:21:45.068Z,-4.00
2018-02-09T07:24:12.631Z,-4.00
2018-02-09T07:26:40.200Z,-3.80
2018-02-09T07:29:07.806Z,-3.80
2018-02-09T07:31:36.109Z,-3.60
2018-02-09T07:34:03.645Z,-3.60
2018-02-09T07:36:31.204Z,-3.50
2018-02-09T07:38:58.762Z,-3.40
2018-02-09T07:41:26.324Z,-3.30
2018-02-09T07:43:53.861Z,-3.20
2018-02-09T07:46:22.194Z,-3.10
2018-02-09T07:48:49.716Z,-3.10
2018-02-09T07:51:18.059Z,-2.80
2018-02-09T07:53:45.581Z,-2.80
2018-02-09T07:56:13.905Z,-1.00
2018-02-09T07:58:41.441Z,-1.00
2018-02-09T08:01:09.773Z,0.70
2018-02-09T08:03:37.861Z,0.70
2018-02-09T08:06:05.418Z,1.30
2018-02-09T08:08:32.955Z,2.00
2018-02-09T08:11:01.287Z,2.90
2018-02-09T08:13:28.833Z,2.80
2018-02-09T08:15:56.414Z,3.20
2018-02-09T08:18:23.946Z,3.70
2018-02-09T08:20:51.526Z,3.40
2018-02-09T08:23:19.085Z,3.80
2018-02-09T08:25:46.661Z,4.10
2018-02-09T08:28:14.196Z,4.10
2018-02-09T08:30:41.760Z,4.10
2018-02-09T08:33:09.296Z,3.10
2018-02-09T08:35:36.903Z,3.20
2018-02-09T08:38:04.428Z,3.70
2018-02-09T08:40:32.904Z,4.00
2018-02-09T08:43:00.443Z,3.80
2018-02-09T08:45:27.987Z,3.00
2018-02-09T08:47:55.523Z,3.00
2018-02-09T08:50:23.108Z,3.90
2018-02-09T08:52:50.629Z,4.70
2018-02-09T08:55:18.184Z,5.80
2018-02-09T08:57:46.470Z,6.50
2018-02-09T09:00:14.114Z,6.50
2018-02-09T09:02:42.464Z,6.70
2018-02-09T09:05:10.779Z,6.10
2018-02-09T09:07:38.302Z,5.80
2018-02-09T09:10:05.855Z,5.60
2018-02-09T09:12:34.149Z,5.20
2018-02-09T09:15:01.726Z,5.20
2018-02-09T09:17:30.065Z,5.80
2018-02-09T09:19:57.643Z,5.80
2018-02-09T09:22:26.007Z,6.40
2018-02-09T09:24:53.572Z,6.60
2018-02-09T09:27:21.098Z,7.30
2018-02-09T09:29:48.657Z,7.70
2018-02-09T09:32:16.215Z,7.60
2018-02-09T09:34:44.787Z,7.60
2018-02-09T09:37:12.312Z,7.20
2018-02-09T09:39:39.903Z,7.20
2018-02-09T09:42:07.466Z,7.40
2018-02-09T09:44:35.024Z,7.50
2018-02-09T09:47:02.556Z,7.80
2018-02-09T09:49:30.116Z,7.60
2018-02-09T09:51:57.639Z,8.00
2018-02-09T09:54:25.190Z,8.30
2018-02-09T09:56:52.771Z,8.00
2018-02-09T09:59:20.336Z,7.80
2018-02-09T10:01:47.864Z,8.10
2018-02-09T10:04:16.179Z,8.40
2018-02-09T10:06:43.724Z,8.40
2018-02-09T10:09:12.046Z,8.40
2018-02-09T10:11:39.560Z,8.40
2018-02-09T10:14:07.132Z,8.40
2018-02-09T10:16:34.660Z,8.00
2018-02-09T10:19:02.228Z,7.30
2018-02-09T10:21:29.897Z,7.10
2018-02-09T10:23:57.612Z,7.00
2018-02-09T10:26:25.146Z,6.70
2018-02-09T10:28:52.687Z,6.10
2018-02-09T10:31:20.239Z,5.60
2018-02-09T10:33:47.803Z,5.10
2018-02-09T10:36:15.340Z,4.70
2018-02-09T10:38:44.133Z,4.20
2018-02-09T10:41:11.747Z,3.90
2018-02-09T10:43:39.333Z,3.60
2018-02-09T10:46:06.892Z,3.40
2018-02-09T10:48:34.435Z,3.30
2018-02-09T10:51:01.968Z,3.10
2018-02-09T10:53:30.299Z,3.90
2018-02-09T10:55:57.828Z,3.90
2018-02-09T10:58:25.388Z,4.80
2018-02-09T11:00:58.740Z,5.00
2018-02-09T11:03:26.364Z,5.20
2018-02-09T11:05:53.919Z,5.20
2018-02-09T11:08:21.525Z,5.30
2018-02-09T11:10:49.149Z,5.10
2018-02-09T11:13:16.711Z,5.00
2018-02-09T11:15:44.248Z,5.00
2018-02-09T11:18:11.813Z,4.60
2018-02-09T11:20:39.347Z,4.50
2018-02-09T11:23:06.908Z,4.30
2018-02-09T11:25:34.439Z,4.10
2018-02-09T11:28:01.997Z,3.90
2018-02-09T11:30:29.524Z,3.70
2018-02-09T11:32:57.104Z,3.50
2018-02-09T11:35:24.631Z,3.50
2018-02-09T11:37:52.994Z,3.30
2018-02-09T11:40:20.528Z,3.20
2018-02-09T11:42:48.080Z,3.40
2018-02-09T11:45:15.625Z,3.70
2018-02-09T11:47:43.184Z,3.60
2018-02-09T11:50:10.713Z,3.50
2018-02-09T11:52:38.265Z,3.40
2018-02-09T11:55:06.592Z,3.10
2018-02-09T11:57:34.150Z,3.10
2018-02-09T12:00:01.664Z,3.10
2018-02-09T12:02:29.237Z,3.00
2018-02-09T12:04:56.978Z,2.90
2018-02-09T12:07:24.518Z,2.90
2018-02-09T12:09:52.842Z,3.00
2018-02-09T12:12:20.389Z,3.00
2018-02-09T12:14:48.709Z,3.40
2018-02-09T12:17:16.246Z,3.40
2018-02-09T12:19:43.889Z,3.60
2018-02-09T12:22:11.412Z,3.60
2018-02-09T12:24:38.968Z,3.60
2018-02-09T12:27:07.306Z,3.40
2018-02-09T12:29:34.829Z,3.40
2018-02-09T12:32:02.352Z,3.30
2018-02-09T12:34:29.896Z,3.20
2018-02-09T12:36:57.431Z,3.10
2018-02-09T12:39:25.771Z,3.10
2018-02-09T12:41:53.305Z,3.00
2018-02-09T12:44:21.628Z,3.30
2018-02-09T12:46:49.168Z,3.20
2018-02-09T12:49:16.754Z,3.30
2018-02-09T12:51:44.331Z,3.60
2018-02-09T12:54:11.903Z,3.80
2018-02-09T12:56:39.452Z,3.80
2018-02-09T12:59:07.837Z,3.70
2018-02-09T13:01:35.384Z,3.70
2018-02-09T13:04:02.966Z,3.70
2018-02-09T13:06:30.528Z,3.70
2018-02-09T13:08:58.080Z,3.60
2018-02-09T13:11:25.626Z,3.70
2018-02-09T13:13:53.182Z,3.60
2018-02-09T13:16:21.473Z,3.40
2018-02-09T13:18:53.561Z,3.40
2018-02-09T13:21:21.849Z,3.40
2018-02-09T13:24:01.364Z,3.40
2018-02-09T13:26:29.035Z,3.30
2018-02-09T13:28:58.440Z,3.20
2018-02-09T13:31:25.992Z,3.10
2018-02-09T13:33:53.669Z,3.20
2018-02-09T13:36:33.143Z,3.10
2018-02-09T13:39:00.744Z,3.00
2018-02-09T13:41:29.134Z,3.10
2018-02-09T13:43:57.162Z,3.10
2018-02-09T13:46:24.716Z,3.10
2018-02-09T13:48:53.258Z,3.00
2018-02-09T13:51:21.564Z,2.90
2018-02-09T13:53:52.358Z,2.90
2018-02-09T13:56:19.911Z,2.90
2018-02-09T13:58:48.227Z,2.70
2018-02-09T14:01:15.840Z,2.70
2018-02-09T14:03:43.584Z,2.60
2018-02-09T14:06:11.212Z,2.40
2018-02-09T14:08:38.768Z,2.40
2018-02-09T14:11:06.292Z,2.30
2018-02-09T14:13:33.851Z,2.30
2018-02-09T14:16:01.405Z,2.20
2018-02-09T14:18:28.956Z,2.30
2018-02-09T14:20:56.519Z,2.40
2018-02-09T14:23:24.084Z,2.40
2018-02-09T14:25:51.620Z,2.50
2018-02-09T14:28:19.188Z,2.60
2018-02-09T14:30:46.764Z,2.60
2018-02-09T14:33:14.316Z,2.60
2018-02-09T14:35:41.844Z,2.60
2018-02-09T14:38:15.677Z,2.60
2018-02-09T14:40:43.218Z,2.60
2018-02-09T14:43:10.826Z,2.60
2018-02-09T14:45:38.432Z,2.60
2018-02-09T14:48:06.724Z,2.60
2018-02-09T14:50:34.320Z,2.60
2018-02-09T14:53:01.843Z,2.70
2018-02-09T14:55:29.426Z,2.90
2018-02-09T14:57:56.983Z,2.80
2018-02-09T15:00:24.667Z,2.80
2018-02-09T15:02:52.188Z,2.80
2018-02-09T15:05:19.713Z,2.80
2018-02-09T15:07:47.335Z,2.70
2018-02-09T15:10:14.896Z,2.70
2018-02-09T15:12:42.547Z,2.60
2018-02-09T15:15:10.040Z,2.40
2018-02-09T15:17:38.380Z,2.30
2018-02-09T15:20:05.899Z,2.20
2018-02-09T15:22:33.474Z,2.20
2018-02-09T15:25:01.008Z,2.20
2018-02-09T15:27:28.531Z,2.10
2018-02-09T15:29:56.565Z,2.00
2018-02-09T15:32:24.097Z,1.90
2018-02-09T15:34:51.663Z,1.80
2018-02-09T15:37:19.176Z,1.70
2018-02-09T15:39:46.740Z,1.60
2018-02-09T15:42:14.284Z,1.50
2018-02-09T15:44:41.848Z,1.40
2018-02-09T15:47:09.375Z,1.30
2018-02-09T15:49:36.936Z,1.20
2018-02-09T15:52:04.479Z,1.20
2018-02-09T15:54:32.031Z,1.20
2018-02-09T15:56:59.552Z,1.20
2018-02-09T15:59:27.096Z,1.10
2018-02-09T16:01:55.387Z,0.90
2018-02-09T16:04:22.932Z,0.90
2018-02-09T16:06:50.451Z,0.80
2018-02-09T16:09:18.007Z,0.70
2018-02-09T16:11:45.529Z,0.60
2018-02-09T16:14:13.870Z,0.40
2018-02-09T16:16:41.390Z,0.40
2018-02-09T16:19:09.712Z,0.30
2018-02-09T16:21:37.236Z,0.30
2018-02-09T16:24:04.800Z,0.10
2018-02-09T16:26:32.325Z,-0.10
2018-02-09T16:28:59.888Z,-0.10
2018-02-09T16:31:27.411Z,0.00
2018-02-09T16:33:54.988Z,-0.10
2018-02-09T16:36:22.544Z,-0.30
2018-02-09T16:38:50.108Z,-0.30
2018-02-09T16:41:17.686Z,-0.30
2018-02-09T16:43:45.244Z,-0.40
2018-02-09T16:46:12.779Z,-0.40
2018-02-09T16:48:40.340Z,-0.40
2018-02-09T16:51:08.649Z,-0.30
2018-02-09T16:53:36.975Z,-0.40
2018-02-09T16:56:04.502Z,-0.50
2018-02-09T16:58:32.880Z,-0.50
2018-02-09T17:01:00.411Z,-0.50
2018-02-09T17:03:27.963Z,-0.60
2018-02-09T17:05:55.489Z,-0.60
2018-02-09T17:08:23.051Z,-0.60
2018-02-09T17:10:50.580Z,-0.70
2018-02-09T17:13:18.145Z,-0.70
2018-02-09T17:15:45.767Z,-0.60
2018-02-09T17:18:13.331Z,-0.60
2018-02-09T17:20:40.856Z,-0.70
2018-02-09T17:23:08.435Z,-0.70
2018-02-09T17:25:35.988Z,-0.70
2018-02-09T17:28:03.556Z,-0.70
2018-02-09T17:30:31.853Z,-0.50
2018-02-09T17:32:59.435Z,-0.50
2018-02-09T17:35:27.800Z,-0.20
2018-02-09T17:37:55.436Z,-0.20
2018-02-09T17:40:22.966Z,0.00
2018-02-09T17:42:51.303Z,0.40
2018-02-09T17:45:18.832Z,0.40
2018-02-09T17:47:47.204Z,0.70
2018-02-09T17:50:14.717Z,0.60
2018-02-09T17:52:42.276Z,0.80
2018-02-09T17:55:09.819Z,0.80
2018-02-09T17:57:37.384Z,0.80
2018-02-09T18:00:04.929Z,0.80
2018-02-09T18:02:32.490Z,0.70
2018-02-09T18:05:00.001Z,0.70
2018-02-09T18:07:27.562Z,0.70
2018-02-09T18:09:55.093Z,0.70
2018-02-09T18:12:22.637Z,0.80
2018-02-09T18:14:50.165Z,0.90
2018-02-09T18:17:17.724Z,0.90
2018-02-09T18:19:45.252Z,0.80
2018-02-09T18:22:13.597Z,0.90
2018-02-09T18:24:41.116Z,0.80
2018-02-09T18:27:08.671Z,0.80
2018-02-09T18:29:36.204Z,0.90
2018-02-09T18:32:04.583Z,1.00
2018-02-09T18:34:32.108Z,1.00
2018-02-09T18:36:59.656Z,1.00
2018-02-09T18:39:27.313Z,1.00
2018-02-09T18:41:54.876Z,0.90
2018-02-09T18:44:22.396Z,0.90
2018-02-09T18:46:49.982Z,0.90
2018-02-09T18:49:17.504Z,0.80
2018-02-09T18:51:45.052Z,0.80
2018-02-09T18:54:12.579Z,0.90
2018-02-09T18:56:40.135Z,0.90
2018-02-09T18:59:07.716Z,1.00
2018-02-09T19:01:35.272Z,1.00
2018-02-09T19:04:02.801Z,1.00
2018-02-09T19:06:31.122Z,1.00
2018-02-09T19:08:58.677Z,1.00
2018-02-09T19:11:26.279Z,1.10
2018-02-09T19:13:53.806Z,1.10
2018-02-09T19:16:22.121Z,1.00
2018-02-09T19:18:49.671Z,1.00
2018-02-09T19:21:17.247Z,1.00
2018-02-09T19:23:45.535Z,1.00
2018-02-09T19:26:13.883Z,1.00
2018-02-09T19:28:41.436Z,1.00
2018-02-09T19:31:09.012Z,0.90
2018-02-09T19:33:36.632Z,1.10
2018-02-09T19:36:04.218Z,1.30
2018-02-09T19:38:31.864Z,1.30
2018-02-09T19:40:59.456Z,1.30
2018-02-09T19:43:27.000Z,1.30
2018-02-09T19:45:54.576Z,1.20
2018-02-09T19:48:22.104Z,1.20
2018-02-09T19:50:49.720Z,1.10
2018-02-09T19:53:17.248Z,1.10
2018-02-09T19:55:44.819Z,1.10
2018-02-09T19:58:12.347Z,1.00
2018-02-09T20:00:39.977Z,1.00
2018-02-09T20:03:07.522Z,1.00
2018-02-09T20:05:35.808Z,1.00
2018-02-09T20:08:03.363Z,1.00
2018-02-09T20:10:30.887Z,0.90
2018-02-09T20:12:59.256Z,0.90
2018-02-09T20:15:26.808Z,0.90
2018-02-09T20:17:54.376Z,1.00
2018-02-09T20:20:22.702Z,1.10
2018-02-09T20:22:50.345Z,1.10
2018-02-09T20:25:18.640Z,1.20
2018-02-09T20:27:46.962Z,1.10
2018-02-09T20:30:14.538Z,1.10
2018-02-09T20:32:42.059Z,1.10
2018-02-09T20:35:10.469Z,1.00
2018-02-09T20:37:37.992Z,1.00
2018-02-09T20:40:05.586Z,1.00
2018-02-09T20:42:34.027Z,1.10
2018-02-09T20:45:01.593Z,1.10
2018-02-09T20:47:29.121Z,1.10
2018-02-09T20:49:56.647Z,1.10
2018-02-09T20:52:24.275Z,1.20
2018-02-09T20:54:52.616Z,1.10
2018-02-09T20:57:20.200Z,1.10
2018-02-09T20:59:47.727Z,1.20
2018-02-09T21:02:16.095Z,1.30
2018-02-09T21:04:44.490Z,1.30
2018-02-09T21:07:12.033Z,1.20
2018-02-09T21:09:39.553Z,1.20
2018-02-09T21:12:07.879Z,1.30
2018-02-09T21:14:35.423Z,1.30
2018-02-09T21:17:02.977Z,1.30
2018-02-09T21:19:30.492Z,1.30
2018-02-09T21:21:58.057Z,1.30
2018-02-09T21:24:25.615Z,1.20
2018-02-09T21:26:53.940Z,1.30
2018-02-09T21:29:21.476Z,1.40
2018-02-09T21:31:49.801Z,1.30
2018-02-09T21:34:17.848Z,1.30
2018-02-09T21:36:45.392Z,1.20
2018-02-09T21:39:12.916Z,1.20
2018-02-09T21:41:40.464Z,1.30
2018-02-09T21:44:08.758Z,1.30
2018-02-09T21:46:37.080Z,1.40
2018-02-09T21:49:04.604Z,1.40
2018-02-09T21:51:32.924Z,1.40
2018-02-09T21:54:00.445Z,1.40
2018-02-09T21:56:28.782Z,1.30
2018-02-09T21:58:56.305Z,1.30
2018-02-09T22:01:23.852Z,1.30
2018-02-09T22:03:51.383Z,1.20
2018-02-09T22:06:19.695Z,1.20
2018-02-09T22:08:47.265Z,1.20
2018-02-09T22:11:14.832Z,1.30
2018-02-09T22:13:42.368Z,1.20
2018-02-09T22:16:09.923Z,1.20
2018-02-09T22:18:37.468Z,1.20
2018-02-09T22:21:05.041Z,1.20
2018-02-09T22:23:32.558Z,1.20
2018-02-09T22:26:00.124Z,1.10
2018-02-09T22:28:27.661Z,1.10
2018-02-09T22:30:55.226Z,1.20
2018-02-09T22:33:22.751Z,1.20
2018-02-09T22:35:50.325Z,1.20
2018-02-09T22:38:17.857Z,1.20
2018-02-09T22:40:45.416Z,1.20
2018-02-09T22:43:13.704Z,1.10
2018-02-09T22:45:41.267Z,1.10
2018-02-09T22:48:08.788Z,1.10
2018-02-09T22:50:36.363Z,1.10
2018-02-09T22:53:03.906Z,1.20
2018-02-09T22:55:31.464Z,1.20
2018-02-09T22:57:58.992Z,1.20
2018-02-09T23:00:26.545Z,1.20
2018-02-09T23:02:54.104Z,1.30
2018-02-09T23:05:22.013Z,1.20
2018-02-09T23:07:50.615Z,1.30
2018-02-09T23:10:18.191Z,1.30
2018-02-09T23:12:45.723Z,1.40
2018-02-09T23:15:13.278Z,1.40
2018-02-09T23:17:40.833Z,1.40
2018-02-09T23:20:08.393Z,1.30
2018-02-09T23:22:36.692Z,1.30
2018-02-09T23:25:06.258Z,1.30
2018-02-09T23:27:33.784Z,1.30
2018-02-09T23:30:01.335Z,1.30
2018-02-09T23:32:28.873Z,1.20
2018-02-09T23:34:56.430Z,1.20
2018-02-09T23:37:23.955Z,1.30
2018-02-09T23:39:51.518Z,1.40
2018-02-09T23:42:19.035Z,1.40
2018-02-09T23:44:46.583Z,1.30
2018-02-09T23:47:14.155Z,1.30
2018-02-09T23:49:41.703Z,1.30
2018-02-09T23:52:09.223Z,1.30
2018-02-09T23:54:36.776Z,1.40
2018-02-09T23:57:04.296Z,1.40
2018-02-09T23:59:31.860Z,1.30
